createdAt,value
2018-12-04T00:00:53.612Z,12.20
2018-12-04T00:01:53.681Z,8.00
2018-12-04T00:02:53.611Z,6.10
2018-12-04T00:03:57.829Z,8.60
2018-12-04T00:04:53.569Z,10.60
2018-12-04T00:05:53.561Z,12.10
2018-12-04T00:06:53.547Z,4.70
2018-12-04T00:07:53.537Z,6.50
2018-12-04T00:08:53.579Z,8.20
2018-12-04T00:09:53.540Z,7.30
2018-12-04T00:10:53.505Z,6.80
2018-12-04T00:11:53.497Z,5.00
2018-12-04T00:12:53.487Z,4.20
2018-12-04T00:13:53.485Z,9.10
2018-12-04T00:14:53.462Z,7.70
2018-12-04T00:15:53.465Z,9.00
2018-12-04T00:16:53.448Z,6.10
2018-12-04T00:17:53.431Z,10.60
2018-12-04T00:18:53.432Z,11.50
2018-12-04T00:19:53.422Z,7.70
2018-12-04T00:20:53.396Z,7.20
2018-12-04T00:21:53.392Z,9.00
2018-12-04T00:22:53.377Z,8.10
2018-12-04T00:23:53.417Z,8.00
2018-12-04T00:24:53.360Z,9.80
2018-12-04T00:25:53.350Z,8.90
2018-12-04T00:26:53.353Z,8.50
2018-12-04T00:27:53.361Z,9.30
2018-12-04T00:28:53.333Z,10.40
2018-12-04T00:29:53.305Z,11.80
2018-12-04T00:30:53.299Z,10.90
2018-12-04T00:31:53.286Z,13.30
2018-12-04T00:32:53.289Z,9.80
2018-12-04T00:33:53.273Z,15.70
2018-12-04T00:34:53.263Z,10.70
2018-12-04T00:35:53.241Z,10.10
2018-12-04T00:36:53.235Z,11.10
2018-12-04T00:37:53.230Z,10.10
2018-12-04T00:38:53.221Z,13.40
2018-12-04T00:39:53.199Z,10.10
2018-12-04T00:40:53.186Z,6.80
2018-12-04T00:41:53.187Z,4.40
2018-12-04T00:42:53.168Z,5.60
2018-12-04T00:43:53.200Z,6.20
2018-12-04T00:44:53.156Z,5.50
2018-12-04T00:45:53.134Z,6.50
2018-12-04T00:46:53.122Z,4.70
2018-12-04T00:47:53.135Z,7.70
2018-12-04T00:48:53.141Z,5.80
2018-12-04T00:49:53.101Z,5.00
2018-12-04T00:50:53.092Z,5.40
2018-12-04T00:51:53.071Z,3.00
2018-12-04T00:52:53.060Z,4.60
2018-12-04T00:53:53.061Z,4.30
2018-12-04T00:54:53.043Z,3.50
2018-12-04T00:55:53.039Z,4.70
2018-12-04T00:56:53.022Z,4.50
2018-12-04T00:57:53.008Z,8.40
2018-12-04T00:58:53.019Z,3.50
2018-12-04T00:59:52.989Z,3.90
2018-12-04T01:00:52.971Z,5.20
2018-12-04T01:01:52.976Z,4.10
2018-12-04T01:02:52.972Z,10.60
2018-12-04T01:03:52.956Z,6.90
2018-12-04T01:04:52.952Z,4.70
2018-12-04T01:05:52.919Z,5.70
2018-12-04T01:06:52.913Z,8.40
2018-12-04T01:07:52.897Z,6.80
2018-12-04T01:08:52.895Z,6.40
2018-12-04T01:09:52.947Z,5.30
2018-12-04T01:10:52.866Z,2.90
2018-12-04T01:11:52.869Z,6.20
2018-12-04T01:12:52.851Z,4.00
2018-12-04T01:13:52.854Z,5.70
2018-12-04T01:14:52.848Z,8.30
2018-12-04T01:15:52.824Z,2.90
2018-12-04T01:16:52.807Z,3.80
2018-12-04T01:17:52.806Z,3.40
2018-12-04T01:18:52.776Z,5.80
2018-12-04T01:19:52.852Z,7.30
2018-12-04T01:20:52.761Z,8.90
2018-12-04T01:21:52.747Z,10.10
2018-12-04T01:22:52.750Z,11.80
2018-12-04T01:23:52.733Z,4.50
2018-12-04T01:24:52.727Z,9.40
2018-12-04T01:25:52.705Z,6.70
2018-12-04T01:26:52.696Z,7.10
2018-12-04T01:27:52.684Z,7.80
2018-12-04T01:28:52.682Z,5.30
2018-12-04T01:29:52.680Z,7.90
2018-12-04T01:30:52.657Z,7.90
2018-12-04T01:31:52.655Z,5.80
2018-12-04T01:32:52.631Z,9.20
2018-12-04T01:33:52.620Z,7.00
2018-12-04T01:34:52.883Z,7.40
2018-12-04T01:35:52.608Z,11.70
2018-12-04T01:36:52.594Z,6.80
2018-12-04T01:37:52.579Z,14.30
2018-12-04T01:38:52.565Z,7.00
2018-12-04T01:39:52.575Z,6.00
2018-12-04T01:40:52.551Z,9.50
2018-12-04T01:41:52.535Z,9.10
2018-12-04T01:42:52.520Z,11.40
2018-12-04T01:43:52.519Z,8.30
2018-12-04T01:44:52.522Z,5.60
2018-12-04T01:45:52.490Z,12.80
2018-12-04T01:46:52.482Z,13.20
2018-12-04T01:47:52.684Z,9.70
2018-12-04T01:48:52.479Z,11.40
2018-12-04T01:49:52.870Z,7.40
2018-12-04T01:50:52.438Z,13.50
2018-12-04T01:51:52.437Z,15.70
2018-12-04T01:52:52.439Z,13.80
2018-12-04T01:53:52.417Z,13.40
2018-12-04T01:54:52.420Z,15.50
2018-12-04T01:55:52.382Z,14.70
2018-12-04T01:56:52.382Z,14.30
2018-12-04T01:57:52.375Z,14.90
2018-12-04T01:58:52.344Z,10.70
2018-12-04T01:59:52.358Z,10.40
2018-12-04T02:00:52.339Z,17.90
2018-12-04T02:01:52.321Z,14.90
2018-12-04T02:02:52.310Z,14.40
2018-12-04T02:03:52.321Z,17.60
2018-12-04T02:04:52.304Z,15.80
2018-12-04T02:05:52.291Z,17.80
2018-12-04T02:06:52.301Z,14.00
2018-12-04T02:07:52.249Z,14.40
2018-12-04T02:08:52.245Z,17.00
2018-12-04T02:09:52.260Z,18.70
2018-12-04T02:10:52.236Z,12.60
2018-12-04T02:11:52.213Z,10.90
2018-12-04T02:12:52.195Z,13.20
2018-12-04T02:13:52.205Z,11.60
2018-12-04T02:14:52.190Z,14.20
2018-12-04T02:15:52.163Z,14.20
2018-12-04T02:16:52.152Z,14.80
2018-12-04T02:17:52.141Z,11.90
2018-12-04T02:18:52.147Z,16.10
2018-12-04T02:19:52.385Z,14.40
2018-12-04T02:20:52.125Z,27.50
2018-12-04T02:21:52.101Z,13.00
2018-12-04T02:22:52.094Z,13.70
2018-12-04T02:23:52.082Z,17.90
2018-12-04T02:24:52.363Z,10.90
2018-12-04T02:25:52.069Z,11.90
2018-12-04T02:26:52.067Z,15.50
2018-12-04T02:27:52.035Z,12.60
2018-12-04T02:28:52.028Z,11.80
2018-12-04T02:29:52.688Z,11.70
2018-12-04T02:30:52.003Z,11.50
2018-12-04T02:31:51.993Z,20.90
2018-12-04T02:32:52.000Z,15.50
2018-12-04T02:33:51.984Z,14.50
2018-12-04T02:34:51.976Z,17.30
2018-12-04T02:35:51.950Z,12.30
2018-12-04T02:36:51.941Z,10.60
2018-12-04T02:37:51.933Z,13.30
2018-12-04T02:38:51.920Z,13.60
2018-12-04T02:39:51.937Z,15.80
2018-12-04T02:40:51.921Z,19.60
2018-12-04T02:41:51.885Z,14.50
2018-12-04T02:42:51.887Z,13.60
2018-12-04T02:43:51.866Z,15.30
2018-12-04T02:44:52.117Z,13.20
2018-12-04T02:45:51.842Z,14.10
2018-12-04T02:46:51.841Z,18.50
2018-12-04T02:47:51.828Z,17.20
2018-12-04T02:48:51.833Z,18.70
2018-12-04T02:49:51.828Z,14.60
2018-12-04T02:50:51.912Z,16.70
2018-12-04T02:51:51.803Z,11.10
2018-12-04T02:52:51.781Z,14.00
2018-12-04T02:53:51.757Z,14.60
2018-12-04T02:54:51.775Z,18.20
2018-12-04T02:55:51.762Z,14.70
2018-12-04T02:56:51.732Z,16.70
2018-12-04T02:57:51.719Z,18.40
2018-12-04T02:58:51.749Z,14.00
2018-12-04T02:59:51.693Z,16.40
2018-12-04T03:00:51.697Z,17.70
2018-12-04T03:01:51.673Z,11.70
2018-12-04T03:02:51.662Z,12.20
2018-12-04T03:03:51.668Z,20.20
2018-12-04T03:04:51.649Z,15.70
2018-12-04T03:05:51.653Z,18.40
2018-12-04T03:06:51.649Z,14.20
2018-12-04T03:07:51.616Z,19.60
2018-12-04T03:08:51.609Z,16.70
2018-12-04T03:09:51.606Z,12.90
2018-12-04T03:10:51.594Z,13.60
2018-12-04T03:11:51.615Z,12.90
2018-12-04T03:12:51.563Z,15.60
2018-12-04T03:13:51.580Z,14.80
2018-12-04T03:14:51.553Z,18.50
2018-12-04T03:15:51.539Z,11.80
2018-12-04T03:16:51.529Z,13.70
2018-12-04T03:17:51.500Z,15.40
2018-12-04T03:18:51.498Z,14.20
2018-12-04T03:19:51.517Z,13.80
2018-12-04T03:20:51.523Z,10.90
2018-12-04T03:21:51.503Z,9.30
2018-12-04T03:22:51.449Z,13.90
2018-12-04T03:23:51.436Z,10.60
2018-12-04T03:24:51.454Z,11.70
2018-12-04T03:25:51.432Z,10.80
2018-12-04T03:26:51.428Z,14.10
2018-12-04T03:27:51.396Z,9.20
2018-12-04T03:28:51.404Z,10.80
2018-12-04T03:29:51.379Z,13.70
2018-12-04T03:30:51.398Z,6.80
2018-12-04T03:31:51.357Z,16.20
2018-12-04T03:32:51.368Z,15.40
2018-12-04T03:33:51.355Z,14.40
2018-12-04T03:34:51.329Z,10.00
2018-12-04T03:35:51.390Z,11.30
2018-12-04T03:36:51.302Z,12.80
2018-12-04T03:37:51.294Z,10.90
2018-12-04T03:38:51.321Z,17.10
2018-12-04T03:39:51.289Z,15.50
2018-12-04T03:40:51.294Z,13.60
2018-12-04T03:41:51.254Z,12.40
2018-12-04T03:42:51.279Z,13.70
2018-12-04T03:43:51.239Z,9.00
2018-12-04T03:44:51.238Z,11.70
2018-12-04T03:45:51.251Z,13.30
2018-12-04T03:46:51.195Z,14.50
2018-12-04T03:47:51.207Z,13.70
2018-12-04T03:48:51.175Z,16.50
2018-12-04T03:49:51.197Z,20.50
2018-12-04T03:50:51.166Z,15.40
2018-12-04T03:51:51.145Z,13.90
2018-12-04T03:52:51.146Z,16.80
2018-12-04T03:53:51.165Z,17.00
2018-12-04T03:54:51.153Z,15.40
2018-12-04T03:55:51.102Z,15.60
2018-12-04T03:56:51.092Z,18.10
2018-12-04T03:57:51.082Z,18.40
2018-12-04T03:58:51.079Z,19.40
2018-12-04T03:59:51.082Z,19.90
2018-12-04T04:00:51.046Z,17.90
2018-12-04T04:01:51.035Z,12.00
2018-12-04T04:02:51.028Z,14.60
2018-12-04T04:03:51.015Z,21.90
2018-12-04T04:04:51.021Z,16.10
2018-12-04T04:05:51.016Z,17.20
2018-12-04T04:06:51.003Z,13.80
2018-12-04T04:07:50.989Z,11.20
2018-12-04T04:08:50.964Z,8.60
2018-12-04T04:09:50.967Z,15.20
2018-12-04T04:10:50.945Z,16.70
2018-12-04T04:11:50.930Z,15.90
2018-12-04T04:12:50.928Z,15.60
2018-12-04T04:13:50.915Z,22.60
2018-12-04T04:14:51.368Z,20.20
2018-12-04T04:15:50.906Z,22.50
2018-12-04T04:16:50.901Z,16.90
2018-12-04T04:17:50.873Z,17.60
2018-12-04T04:18:50.873Z,17.20
2018-12-04T04:19:51.359Z,15.90
2018-12-04T04:20:50.846Z,18.10
2018-12-04T04:21:50.839Z,16.60
2018-12-04T04:22:50.812Z,24.30
2018-12-04T04:23:50.802Z,15.10
2018-12-04T04:24:50.807Z,17.80
2018-12-04T04:25:50.783Z,16.70
2018-12-04T04:26:50.787Z,19.40
2018-12-04T04:27:50.778Z,15.20
2018-12-04T04:28:50.756Z,13.20
2018-12-04T04:29:50.753Z,21.80
2018-12-04T04:30:50.727Z,18.50
2018-12-04T04:31:50.721Z,16.40
2018-12-04T04:32:50.709Z,16.20
2018-12-04T04:33:50.707Z,19.30
2018-12-04T04:34:50.711Z,20.40
2018-12-04T04:35:50.688Z,14.90
2018-12-04T04:36:50.889Z,18.00
2018-12-04T04:37:50.662Z,18.60
2018-12-04T04:38:50.644Z,16.50
2018-12-04T04:39:50.856Z,19.20
2018-12-04T04:40:50.621Z,23.00
2018-12-04T04:41:50.617Z,20.20
2018-12-04T04:42:50.612Z,18.40
2018-12-04T04:43:50.606Z,20.10
2018-12-04T04:44:50.624Z,21.60
2018-12-04T04:45:50.576Z,24.80
2018-12-04T04:46:50.590Z,19.80
2018-12-04T04:47:50.547Z,22.10
2018-12-04T04:48:50.572Z,18.10
2018-12-04T04:49:50.862Z,16.80
2018-12-04T04:50:50.521Z,21.00
2018-12-04T04:51:50.511Z,18.80
2018-12-04T04:52:50.502Z,18.10
2018-12-04T04:53:50.506Z,19.50
2018-12-04T04:54:50.493Z,21.80
2018-12-04T04:55:50.466Z,17.10
2018-12-04T04:56:50.461Z,19.70
2018-12-04T04:57:50.443Z,21.70
2018-12-04T04:58:50.432Z,19.40
2018-12-04T04:59:50.875Z,20.80
2018-12-04T05:00:50.424Z,18.50
2018-12-04T05:01:50.433Z,22.70
2018-12-04T05:02:50.405Z,19.70
2018-12-04T05:03:50.382Z,18.20
2018-12-04T05:04:50.394Z,21.70
2018-12-04T05:05:50.376Z,20.50
2018-12-04T05:06:50.355Z,24.10
2018-12-04T05:07:50.334Z,21.00
2018-12-04T05:08:50.337Z,22.80
2018-12-04T05:09:50.378Z,29.40
2018-12-04T05:10:50.313Z,22.20
2018-12-04T05:11:50.295Z,22.50
2018-12-04T05:12:50.285Z,18.00
2018-12-04T05:13:50.271Z,20.80
2018-12-04T05:14:50.285Z,21.60
2018-12-04T05:15:50.257Z,27.80
2018-12-04T05:16:50.248Z,21.40
2018-12-04T05:17:50.241Z,19.80
2018-12-04T05:18:50.452Z,22.30
2018-12-04T05:19:50.479Z,16.70
2018-12-04T05:20:50.198Z,21.00
2018-12-04T05:21:50.188Z,21.00
2018-12-04T05:22:50.182Z,21.20
2018-12-04T05:23:50.167Z,31.50
2018-12-04T05:24:50.159Z,25.90
2018-12-04T05:25:50.182Z,24.20
2018-12-04T05:26:50.133Z,28.50
2018-12-04T05:27:50.126Z,30.70
2018-12-04T05:28:50.112Z,25.20
2018-12-04T05:29:50.106Z,21.00
2018-12-04T05:30:50.357Z,25.50
2018-12-04T05:31:50.081Z,28.60
2018-12-04T05:32:50.071Z,27.90
2018-12-04T05:33:50.083Z,22.80
2018-12-04T05:34:50.061Z,20.40
2018-12-04T05:35:50.090Z,26.20
2018-12-04T05:36:50.045Z,23.60
2018-12-04T05:37:50.020Z,25.80
2018-12-04T05:38:50.079Z,23.60
2018-12-04T05:39:50.157Z,22.70
2018-12-04T05:40:50.057Z,20.80
2018-12-04T05:41:50.002Z,18.30
2018-12-04T05:42:51.052Z,27.70
2018-12-04T05:43:49.977Z,20.20
2018-12-04T05:44:50.031Z,19.60
2018-12-04T05:45:50.134Z,26.00
2018-12-04T05:46:50.896Z,24.40
2018-12-04T05:47:49.983Z,16.00
2018-12-04T05:48:49.907Z,17.80
2018-12-04T05:49:49.893Z,20.00
2018-12-04T05:50:50.498Z,17.50
2018-12-04T05:51:49.913Z,16.10
2018-12-04T05:52:49.900Z,17.00
2018-12-04T05:53:49.928Z,28.60
2018-12-04T05:54:49.922Z,17.00
2018-12-04T05:55:49.967Z,18.70
2018-12-04T05:56:49.878Z,23.30
2018-12-04T05:57:49.829Z,17.50
2018-12-04T05:58:49.788Z,18.10
2018-12-04T05:59:49.778Z,23.60
2018-12-04T06:00:49.802Z,24.20
2018-12-04T06:01:50.564Z,23.50
2018-12-04T06:02:49.756Z,26.80
2018-12-04T06:03:49.742Z,24.70
2018-12-04T06:04:49.764Z,27.50
2018-12-04T06:05:50.455Z,26.30
2018-12-04T06:06:49.709Z,20.40
2018-12-04T06:07:49.705Z,20.40
2018-12-04T06:08:49.904Z,26.50
2018-12-04T06:09:49.697Z,21.60
2018-12-04T06:10:49.673Z,24.60
2018-12-04T06:11:49.652Z,17.70
2018-12-04T06:12:49.671Z,20.50
2018-12-04T06:13:49.658Z,16.20
2018-12-04T06:14:50.351Z,27.00
2018-12-04T06:15:49.697Z,21.20
2018-12-04T06:16:49.610Z,19.60
2018-12-04T06:17:49.659Z,26.10
2018-12-04T06:18:49.645Z,24.90
2018-12-04T06:19:49.637Z,26.40
2018-12-04T06:20:49.825Z,23.50
2018-12-04T06:21:51.347Z,25.80
2018-12-04T06:22:49.676Z,21.80
2018-12-04T06:23:49.613Z,22.60
2018-12-04T06:24:49.566Z,17.40
2018-12-04T06:25:49.636Z,28.80
2018-12-04T06:26:49.485Z,20.70
2018-12-04T06:27:49.492Z,33.00
2018-12-04T06:28:49.470Z,31.10
2018-12-04T06:29:49.484Z,34.50
2018-12-04T06:30:49.538Z,28.70
2018-12-04T06:31:49.522Z,32.70
2018-12-04T06:32:49.504Z,28.20
2018-12-04T06:33:49.413Z,27.80
2018-12-04T06:34:49.435Z,25.70
2018-12-04T06:35:49.976Z,25.80
2018-12-04T06:36:49.382Z,32.00
2018-12-04T06:37:49.389Z,25.20
2018-12-04T06:38:49.389Z,24.70
2018-12-04T06:39:49.372Z,24.10
2018-12-04T06:40:49.375Z,23.50
2018-12-04T06:41:49.348Z,30.70
2018-12-04T06:42:49.315Z,22.20
2018-12-04T06:43:49.524Z,25.70
2018-12-04T06:44:49.316Z,20.60
2018-12-04T06:45:49.364Z,27.90
2018-12-04T06:46:49.268Z,24.60
2018-12-04T06:47:49.329Z,19.00
2018-12-04T06:48:49.282Z,26.50
2018-12-04T06:49:49.866Z,27.70
2018-12-04T06:50:49.236Z,24.90
2018-12-04T06:51:49.218Z,21.40
2018-12-04T06:52:49.251Z,21.60
2018-12-04T06:53:49.207Z,18.90
2018-12-04T06:54:49.191Z,21.40
2018-12-04T06:55:49.199Z,25.50
2018-12-04T06:56:49.161Z,24.80
2018-12-04T06:57:49.151Z,19.70
2018-12-04T06:58:49.182Z,25.60
2018-12-04T06:59:49.126Z,25.30
2018-12-04T07:00:49.479Z,20.40
2018-12-04T07:01:49.112Z,17.00
2018-12-04T07:02:49.161Z,21.30
2018-12-04T07:03:49.103Z,30.60
2018-12-04T07:04:49.093Z,24.50
2018-12-04T07:05:49.152Z,21.90
2018-12-04T07:06:49.082Z,17.50
2018-12-04T07:07:49.062Z,19.30
2018-12-04T07:08:49.062Z,23.40
2018-12-04T07:09:49.036Z,19.60
2018-12-04T07:10:49.089Z,18.80
2018-12-04T07:11:49.431Z,22.80
2018-12-04T07:12:48.990Z,22.40
2018-12-04T07:13:48.994Z,16.60
2018-12-04T07:14:48.969Z,20.50
2018-12-04T07:15:49.861Z,18.50
2018-12-04T07:16:49.021Z,20.40
2018-12-04T07:17:48.932Z,22.40
2018-12-04T07:18:48.990Z,13.00
2018-12-04T07:19:48.940Z,16.90
2018-12-04T07:20:48.932Z,15.00
2018-12-04T07:21:49.528Z,15.20
2018-12-04T07:22:48.966Z,16.70
2018-12-04T07:23:48.944Z,20.90
2018-12-04T07:24:48.858Z,13.30
2018-12-04T07:25:48.906Z,15.00
2018-12-04T07:26:48.847Z,15.00
2018-12-04T07:27:48.825Z,15.20
2018-12-04T07:28:48.840Z,15.60
2018-12-04T07:29:48.841Z,16.80
2018-12-04T07:30:48.854Z,17.00
2018-12-04T07:31:48.848Z,20.10
2018-12-04T07:32:48.775Z,15.90
2018-12-04T07:33:48.793Z,16.80
2018-12-04T07:34:48.807Z,14.80
2018-12-04T07:35:48.743Z,8.60
2018-12-04T07:36:48.797Z,19.80
2018-12-04T07:37:48.730Z,13.50
2018-12-04T07:38:48.710Z,16.30
2018-12-04T07:39:48.734Z,19.40
2018-12-04T07:40:48.732Z,14.90
2018-12-04T07:41:48.696Z,15.20
2018-12-04T07:42:48.665Z,17.50
2018-12-04T07:43:48.663Z,11.20
2018-12-04T07:44:48.664Z,15.80
2018-12-04T07:45:48.653Z,15.60
2018-12-04T07:46:48.939Z,10.40
2018-12-04T07:47:48.622Z,12.80
2018-12-04T07:48:48.625Z,15.10
2018-12-04T07:49:48.676Z,15.50
2018-12-04T07:50:48.589Z,15.20
2018-12-04T07:51:48.686Z,19.70
2018-12-04T07:52:48.574Z,12.70
2018-12-04T07:53:48.570Z,12.20
2018-12-04T07:54:48.599Z,13.60
2018-12-04T07:55:48.532Z,12.90
2018-12-04T07:56:48.908Z,17.40
2018-12-04T07:57:48.554Z,8.60
2018-12-04T07:58:48.539Z,15.90
2018-12-04T07:59:48.490Z,17.40
2018-12-04T08:00:48.563Z,15.40
2018-12-04T08:01:48.519Z,9.50
2018-12-04T08:02:48.460Z,10.70
2018-12-04T08:03:48.482Z,11.00
2018-12-04T08:04:48.497Z,14.20
2018-12-04T08:05:48.449Z,11.30
2018-12-04T08:06:48.493Z,13.60
2018-12-04T08:07:48.437Z,11.70
2018-12-04T08:08:48.433Z,8.90
2018-12-04T08:09:48.409Z,14.10
2018-12-04T08:10:48.421Z,8.70
2018-12-04T08:11:48.369Z,11.20
2018-12-04T08:12:48.356Z,16.20
2018-12-04T08:13:48.363Z,12.00
2018-12-04T08:14:48.379Z,13.00
2018-12-04T08:15:48.327Z,7.20
2018-12-04T08:16:48.353Z,11.10
2018-12-04T08:17:48.304Z,10.40
2018-12-04T08:18:48.298Z,10.70
2018-12-04T08:19:48.279Z,7.00
2018-12-04T08:20:48.290Z,12.30
2018-12-04T08:21:48.293Z,19.60
2018-12-04T08:22:48.273Z,8.80
2018-12-04T08:23:48.239Z,11.40
2018-12-04T08:24:48.211Z,14.60
2018-12-04T08:25:48.238Z,9.80
2018-12-04T08:26:48.202Z,7.20
2018-12-04T08:27:48.259Z,10.50
2018-12-04T08:28:48.180Z,6.70
2018-12-04T08:29:48.169Z,6.40
2018-12-04T08:30:48.188Z,11.40
2018-12-04T08:31:48.167Z,7.10
2018-12-04T08:32:48.122Z,10.60
2018-12-04T08:33:48.147Z,9.50
2018-12-04T08:34:48.104Z,6.10
2018-12-04T08:35:48.094Z,8.70
2018-12-04T08:36:48.120Z,7.50
2018-12-04T08:37:48.072Z,11.20
2018-12-04T08:38:48.097Z,9.20
2018-12-04T08:39:48.091Z,8.10
2018-12-04T08:40:48.059Z,9.00
2018-12-04T08:41:48.428Z,13.40
2018-12-04T08:42:48.040Z,9.80
2018-12-04T08:43:48.005Z,10.40
2018-12-04T08:44:48.050Z,9.60
2018-12-04T08:45:48.005Z,6.30
2018-12-04T08:46:47.992Z,8.10
2018-12-04T08:47:47.988Z,14.40
2018-12-04T08:48:47.996Z,14.40
2018-12-04T08:49:47.996Z,6.60
2018-12-04T08:50:47.958Z,7.90
2018-12-04T08:51:47.977Z,9.10
2018-12-04T08:52:47.910Z,9.00
2018-12-04T08:53:47.917Z,11.90
2018-12-04T08:54:47.939Z,9.50
2018-12-04T08:55:47.879Z,10.40
2018-12-04T08:56:48.131Z,9.70
2018-12-04T08:57:47.856Z,8.20
2018-12-04T08:58:47.849Z,6.40
2018-12-04T08:59:47.858Z,9.50
2018-12-04T09:00:47.874Z,11.40
2018-12-04T09:01:47.815Z,11.50
2018-12-04T09:02:47.844Z,9.00
2018-12-04T09:03:47.821Z,7.70
2018-12-04T09:04:47.808Z,13.50
2018-12-04T09:05:47.786Z,8.00
2018-12-04T09:06:47.845Z,10.50
2018-12-04T09:07:47.781Z,7.60
2018-12-04T09:08:47.847Z,6.50
2018-12-04T09:09:47.769Z,12.00
2018-12-04T09:10:47.780Z,11.90
2018-12-04T09:11:47.703Z,8.60
2018-12-04T09:12:47.725Z,15.50
2018-12-04T09:13:47.763Z,14.00
2018-12-04T09:14:47.737Z,10.30
2018-12-04T09:15:47.697Z,12.90
2018-12-04T09:16:47.649Z,10.00
2018-12-04T09:17:47.741Z,10.10
2018-12-04T09:18:47.634Z,9.50
2018-12-04T09:19:47.652Z,13.70
2018-12-04T09:20:47.645Z,11.20
2018-12-04T09:21:47.627Z,6.50
2018-12-04T09:22:47.633Z,8.80
2018-12-04T09:23:47.580Z,8.90
2018-12-04T09:24:47.611Z,11.60
2018-12-04T09:25:47.586Z,12.00
2018-12-04T09:26:47.635Z,12.50
2018-12-04T09:27:47.946Z,8.30
2018-12-04T09:28:47.567Z,7.80
2018-12-04T09:29:47.618Z,12.00
2018-12-04T09:30:47.522Z,11.60
2018-12-04T09:31:47.714Z,10.20
2018-12-04T09:32:47.512Z,8.70
2018-12-04T09:33:48.354Z,13.10
2018-12-04T09:34:47.489Z,8.70
2018-12-04T09:35:47.468Z,9.70
2018-12-04T09:36:47.460Z,6.10
2018-12-04T09:37:47.449Z,12.00
2018-12-04T09:38:47.435Z,8.20
2018-12-04T09:39:47.406Z,15.10
2018-12-04T09:40:47.406Z,7.40
2018-12-04T09:41:47.446Z,11.80
2018-12-04T09:42:47.869Z,11.10
2018-12-04T09:43:47.378Z,6.50
2018-12-04T09:44:47.375Z,11.20
2018-12-04T09:45:47.401Z,7.00
2018-12-04T09:46:47.332Z,12.80
2018-12-04T09:47:47.391Z,10.00
2018-12-04T09:48:47.306Z,10.10
2018-12-04T09:49:47.313Z,7.90
2018-12-04T09:50:47.299Z,10.90
2018-12-04T09:51:47.289Z,8.50
2018-12-04T09:52:47.664Z,11.80
2018-12-04T09:53:52.033Z,10.10
2018-12-04T09:54:48.227Z,9.80
2018-12-04T09:55:47.234Z,13.30
2018-12-04T09:56:47.259Z,7.50
2018-12-04T09:57:47.284Z,8.90
2018-12-04T09:58:47.267Z,14.00
2018-12-04T09:59:47.211Z,8.00
2018-12-04T10:00:47.188Z,8.00
2018-12-04T10:01:47.180Z,10.80
2018-12-04T10:02:47.338Z,4.90
2018-12-04T10:03:47.171Z,10.90
2018-12-04T10:04:47.155Z,6.30
2018-12-04T10:05:47.124Z,11.90
2018-12-04T10:06:47.152Z,9.80
2018-12-04T10:07:47.121Z,9.70
2018-12-04T10:08:47.102Z,13.10
2018-12-04T10:09:47.070Z,7.10
2018-12-04T10:10:47.134Z,8.80
2018-12-04T10:11:47.056Z,10.80
2018-12-04T10:12:47.152Z,7.10
2018-12-04T10:13:47.436Z,6.00
2018-12-04T10:14:47.023Z,10.60
2018-12-04T10:15:47.047Z,16.00
2018-12-04T10:16:47.001Z,13.60
2018-12-04T10:17:47.039Z,12.00
2018-12-04T10:18:47.738Z,10.80
2018-12-04T10:19:46.990Z,13.60
2018-12-04T10:20:46.964Z,6.60
2018-12-04T10:21:46.950Z,7.80
2018-12-04T10:22:46.931Z,6.20
2018-12-04T10:23:46.995Z,8.80
2018-12-04T10:24:46.910Z,8.30
2018-12-04T10:25:46.897Z,10.30
2018-12-04T10:26:46.897Z,14.40
2018-12-04T10:27:46.878Z,19.60
2018-12-04T10:28:46.919Z,11.60
2018-12-04T10:29:46.876Z,11.50
2018-12-04T10:30:46.853Z,13.20
2018-12-04T10:31:46.907Z,13.30
2018-12-04T10:32:46.850Z,10.80
2018-12-04T10:33:46.859Z,7.60
2018-12-04T10:34:46.836Z,9.90
2018-12-04T10:35:46.797Z,8.30
2018-12-04T10:36:46.818Z,9.70
2018-12-04T10:37:46.792Z,14.00
2018-12-04T10:38:46.876Z,10.20
2018-12-04T10:39:46.757Z,13.20
2018-12-04T10:40:46.743Z,13.20
2018-12-04T10:41:46.735Z,11.40
2018-12-04T10:42:46.736Z,10.00
2018-12-04T10:43:46.725Z,9.80
2018-12-04T10:44:46.708Z,7.60
2018-12-04T10:45:46.688Z,7.50
2018-12-04T10:46:46.677Z,9.30
2018-12-04T10:47:46.691Z,9.30
2018-12-04T10:48:46.667Z,8.20
2018-12-04T10:49:46.658Z,8.10
2018-12-04T10:50:46.642Z,5.90
2018-12-04T10:51:46.626Z,10.00
2018-12-04T10:52:46.649Z,10.00
2018-12-04T10:53:46.619Z,9.40
2018-12-04T10:54:46.624Z,8.30
2018-12-04T10:55:46.576Z,7.50
2018-12-04T10:56:46.596Z,8.20
2018-12-04T10:57:46.595Z,9.20
2018-12-04T10:58:46.593Z,12.80
2018-12-04T10:59:46.543Z,9.80
2018-12-04T11:00:46.532Z,11.40
2018-12-04T11:01:46.553Z,10.10
2018-12-04T11:02:46.509Z,11.10
2018-12-04T11:03:46.558Z,13.60
2018-12-04T11:04:46.489Z,6.90
2018-12-04T11:05:46.490Z,6.40
2018-12-04T11:06:46.463Z,8.90
2018-12-04T11:07:46.454Z,11.00
2018-12-04T11:08:46.470Z,12.00
2018-12-04T11:09:46.431Z,11.90
2018-12-04T11:10:46.452Z,13.40
2018-12-04T11:11:46.419Z,12.40
2018-12-04T11:12:46.416Z,10.70
2018-12-04T11:13:46.406Z,14.60
2018-12-04T11:14:46.381Z,6.90
2018-12-04T11:15:46.364Z,6.70
2018-12-04T11:16:46.363Z,8.70
2018-12-04T11:17:46.342Z,11.00
2018-12-04T11:18:46.354Z,6.00
2018-12-04T11:19:46.334Z,7.40
2018-12-04T11:20:46.330Z,8.90
2018-12-04T11:21:46.303Z,14.00
2018-12-04T11:22:46.296Z,10.40
2018-12-04T11:23:46.297Z,6.40
2018-12-04T11:24:46.277Z,8.00
2018-12-04T11:25:46.354Z,8.60
2018-12-04T11:26:46.260Z,11.50
2018-12-04T11:27:46.244Z,7.40
2018-12-04T11:28:46.247Z,4.90
2018-12-04T11:29:46.218Z,8.80
2018-12-04T11:30:46.223Z,6.10
2018-12-04T11:31:46.196Z,8.50
2018-12-04T11:32:46.182Z,6.40
2018-12-04T11:33:46.374Z,8.30
2018-12-04T11:34:46.163Z,9.70
2018-12-04T11:35:46.163Z,8.00
2018-12-04T11:36:46.147Z,6.50
2018-12-04T11:37:46.360Z,6.20
2018-12-04T11:38:46.132Z,9.60
2018-12-04T11:39:46.147Z,8.20
2018-12-04T11:40:46.100Z,6.90
2018-12-04T11:41:46.106Z,6.20
2018-12-04T11:42:46.094Z,8.50
2018-12-04T11:43:46.068Z,6.00
2018-12-04T11:44:46.073Z,11.20
2018-12-04T11:45:46.081Z,6.50
2018-12-04T11:46:46.039Z,4.50
2018-12-04T11:47:46.038Z,4.50
2018-12-04T11:48:46.047Z,9.50
2018-12-04T11:49:46.360Z,6.00
2018-12-04T11:50:45.993Z,8.20
2018-12-04T11:51:45.989Z,5.50
2018-12-04T11:52:45.989Z,8.90
2018-12-04T11:53:45.960Z,5.70
2018-12-04T11:54:45.968Z,7.70
2018-12-04T11:55:45.940Z,8.50
2018-12-04T11:56:45.951Z,7.90
2018-12-04T11:57:45.924Z,6.60
2018-12-04T11:58:45.960Z,6.10
2018-12-04T11:59:46.370Z,7.30
2018-12-04T12:00:45.886Z,8.50
2018-12-04T12:01:45.873Z,4.10
2018-12-04T12:02:45.895Z,6.20
2018-12-04T12:03:45.859Z,7.70
2018-12-04T12:04:45.864Z,5.20
2018-12-04T12:05:45.865Z,6.20
2018-12-04T12:06:45.834Z,9.20
2018-12-04T12:07:45.813Z,8.40
2018-12-04T12:08:45.803Z,7.80
2018-12-04T12:09:45.806Z,7.20
2018-12-04T12:10:45.804Z,6.10
2018-12-04T12:11:45.793Z,7.00
2018-12-04T12:12:45.762Z,6.50
2018-12-04T12:13:45.753Z,7.10
2018-12-04T12:14:45.855Z,8.50
2018-12-04T12:15:45.746Z,8.20
2018-12-04T12:16:45.736Z,8.90
2018-12-04T12:17:45.735Z,6.40
2018-12-04T12:18:45.713Z,9.00
2018-12-04T12:19:45.890Z,5.70
2018-12-04T12:20:45.682Z,6.70
2018-12-04T12:21:45.681Z,2.70
2018-12-04T12:22:45.652Z,7.20
2018-12-04T12:23:45.643Z,5.50
2018-12-04T12:24:45.645Z,5.90
2018-12-04T12:25:45.639Z,4.40
2018-12-04T12:26:45.613Z,6.70
2018-12-04T12:27:45.602Z,4.80
2018-12-04T12:28:45.590Z,3.00
2018-12-04T12:29:45.613Z,3.70
2018-12-04T12:30:45.572Z,5.40
2018-12-04T12:31:45.561Z,5.70
2018-12-04T12:32:45.554Z,3.10
2018-12-04T12:33:45.542Z,5.90
2018-12-04T12:34:45.544Z,5.20
2018-12-04T12:35:45.536Z,6.40
2018-12-04T12:36:45.505Z,3.30
2018-12-04T12:37:45.493Z,6.70
2018-12-04T12:38:45.488Z,4.10
2018-12-04T12:39:45.496Z,4.00
2018-12-04T12:40:45.466Z,10.00
2018-12-04T12:41:45.658Z,5.40
2018-12-04T12:42:45.454Z,6.90
2018-12-04T12:43:45.435Z,10.50
2018-12-04T12:44:45.428Z,5.20
2018-12-04T12:45:45.409Z,6.10
2018-12-04T12:46:45.396Z,5.70
2018-12-04T12:47:45.386Z,3.60
2018-12-04T12:48:45.375Z,7.00
2018-12-04T12:49:45.865Z,4.20
2018-12-04T12:50:45.354Z,7.20
2018-12-04T12:51:45.343Z,7.60
2018-12-04T12:52:45.336Z,8.30
2018-12-04T12:53:45.381Z,7.20
2018-12-04T12:54:45.332Z,10.30
2018-12-04T12:55:45.332Z,8.60
2018-12-04T12:56:45.287Z,8.70
2018-12-04T12:57:45.297Z,8.40
2018-12-04T12:58:45.266Z,6.70
2018-12-04T12:59:45.292Z,11.20
2018-12-04T13:00:45.241Z,13.60
2018-12-04T13:01:45.237Z,7.10